Time;durP1;ratioP1;P1;durP2;ratioP2;P2;SDS_P1;SDS_P2;PMS_P1;PMS_P2;Temp;Humidity;BMP_temperature;BMP_pressure;BME280_temperature;BME280_humidity;BME280_pressure;Samples;Min_cycle;Max_cycle;Signal;HPM_P1;HPM_P2
2024/03/17 00:01:17;;;;;;;6.30;2.10;;;;;;;7.25;89.82;100738.21;104787;1273;97990;-77
2024/03/17 00:04:03;;;;;;;11.50;3.00;;;;;;;7.28;90.21;100741.91;104807;1268;99022;-77
2024/03/17 00:06:48;;;;;;;10.60;2.10;;;;;;;7.29;89.74;100739.92;104751;1273;102992;-78
2024/03/17 00:09:34;;;;;;;11.80;2.00;;;;;;;7.28;89.50;100743.14;104885;1274;99201;-77
2024/03/17 00:12:19;;;;;;;8.50;2.40;;;;;;;7.25;88.83;100748.86;105037;1271;97999;-79
2024/03/17 00:15:06;;;;;;;10.60;2.60;;;;;;;7.20;88.42;100746.59;105334;1268;97889;-78
2024/03/17 00:17:52;;;;;;;9.40;2.20;;;;;;;7.14;87.65;100749.70;104930;1268;98456;-77
2024/03/17 00:20:38;;;;;;;8.30;3.00;;;;;;;7.08;87.04;100752.13;104959;1273;102086;-77
2024/03/17 00:23:24;;;;;;;11.40;2.70;;;;;;;7.02;86.64;100752.75;105125;1273;100726;-78
2024/03/17 00:26:10;;;;;;;10.40;2.20;;;;;;;6.97;87.11;100751.29;105288;1268;97884;-80
2024/03/17 00:28:55;;;;;;;8.40;2.00;;;;;;;6.94;86.89;100750.75;105426;1273;97998;-78
2024/03/17 00:31:41;;;;;;;7.10;2.40;;;;;;;6.91;86.57;100746.81;105321;1273;98618;-80
2024/03/17 00:34:26;;;;;;;10.90;2.20;;;;;;;6.86;86.68;100749.21;105310;1269;101838;-79
2024/03/17 00:37:12;;;;;;;18.60;3.00;;;;;;;6.84;86.76;100747.11;105152;1273;100381;-79
2024/03/17 00:39:57;;;;;;;12.90;3.30;;;;;;;6.84;86.95;100749.80;105174;1268;99083;-76
2024/03/17 00:42:44;;;;;;;11.30;2.60;;;;;;;6.82;86.73;100756.58;105049;1274;98021;-78
2024/03/17 00:45:29;;;;;;;12.30;2.50;;;;;;;6.80;87.14;100753.95;104820;1273;98556;-78
2024/03/17 00:48:14;;;;;;;10.10;2.40;;;;;;;6.80;87.02;100754.11;104766;1273;101390;-79
2024/03/17 00:51:00;;;;;;;15.40;2.60;;;;;;;6.77;86.68;100754.82;104958;1273;99166;-79
2024/03/17 00:53:46;;;;;;;14.60;3.20;;;;;;;6.74;86.85;100756.60;104867;1274;98037;-78
2024/03/17 00:56:32;;;;;;;14.90;2.80;;;;;;;6.69;86.73;100755.44;104801;1270;98236;-79
2024/03/17 00:59:17;;;;;;;13.90;3.00;;;;;;;6.67;87.02;100757.54;104944;1268;98523;-79
2024/03/17 01:02:03;;;;;;;15.10;2.40;;;;;;;6.65;87.26;100757.91;104726;1275;101394;-78
2024/03/17 01:04:48;;;;;;;8.80;2.60;;;;;;;6.63;87.63;100761.44;104831;1268;99168;-78
2024/03/17 01:07:34;;;;;;;10.30;3.20;;;;;;;6.63;87.56;100758.01;104921;1274;99106;-78
2024/03/17 01:10:19;;;;;;;7.30;2.00;;;;;;;6.63;87.61;100756.67;104827;1273;98183;-77
2024/03/17 01:13:09;;;;;;;16.00;3.20;;;;;;;6.62;87.58;100760.66;104984;1268;98524;-78
2024/03/17 01:15:54;;;;;;;13.10;2.70;;;;;;;6.61;87.73;100764.34;104856;1275;103038;-77
2024/03/17 01:18:39;;;;;;;14.60;3.10;;;;;;;6.57;87.72;100759.54;104945;1273;99135;-79
2024/03/17 01:21:25;;;;;;;9.80;2.40;;;;;;;6.56;87.98;100758.30;104945;1272;98546;-78
2024/03/17 01:24:10;;;;;;;14.40;2.60;;;;;;;6.55;87.94;100755.57;104984;1268;98001;-78
2024/03/17 01:26:56;;;;;;;12.10;2.60;;;;;;;6.53;88.09;100754.35;104914;1273;97903;-79
2024/03/17 01:29:44;;;;;;;11.30;2.50;;;;;;;6.54;88.50;100752.44;105108;1273;101358;-79
2024/03/17 01:32:29;;;;;;;12.70;3.20;;;;;;;6.56;88.46;100751.67;104903;1273;99125;-78
2024/03/17 01:35:15;;;;;;;11.40;2.70;;;;;;;6.57;89.02;100751.19;105032;1268;98429;-78
2024/03/17 01:38:00;;;;;;;11.30;3.30;;;;;;;6.61;89.30;100745.29;105012;1274;97991;-78
2024/03/17 01:40:47;;;;;;;17.00;3.20;;;;;;;6.65;89.16;100748.31;104979;1270;98579;-79
2024/03/17 01:43:32;;;;;;;14.80;2.70;;;;;;;6.67;89.26;100753.60;104988;1272;102127;-79
2024/03/17 01:46:18;;;;;;;7.60;2.60;;;;;;;6.69;89.35;100749.77;105042;1272;99168;-77
2024/03/17 01:49:04;;;;;;;10.00;2.10;;;;;;;6.71;89.31;100749.73;104769;1282;98579;-78
2024/03/17 01:51:50;;;;;;;14.80;2.90;;;;;;;6.73;89.20;100748.34;104957;1273;97953;-79
2024/03/17 01:54:37;;;;;;;14.90;2.60;;;;;;;6.69;88.72;100746.02;105307;1273;98119;-79
2024/03/17 01:57:23;;;;;;;11.10;3.00;;;;;;;6.66;88.77;100746.91;105420;1268;101381;-79
2024/03/17 02:00:09;;;;;;;14.30;2.80;;;;;;;6.65;89.20;100746.17;105487;1268;100023;-79
2024/03/17 02:02:54;;;;;;;10.70;2.50;;;;;;;6.66;89.48;100753.84;105329;1270;98338;-79
2024/03/17 02:05:39;;;;;;;15.10;2.90;;;;;;;6.66;89.46;100756.16;105233;1273;97923;-78
2024/03/17 02:08:25;;;;;;;12.20;2.70;;;;;;;6.65;89.50;100756.91;105119;1273;96066;-78
2024/03/17 02:11:24;;;;;;;12.40;2.70;;;;;;;6.67;89.65;100755.69;104955;1268;101332;-78
2024/03/17 02:14:10;;;;;;;14.60;4.10;;;;;;;6.67;89.56;100761.34;104949;1272;99281;-79
2024/03/17 02:16:55;;;;;;;10.10;3.20;;;;;;;6.68;89.52;100766.09;105987;1274;97986;-78
2024/03/17 02:19:40;;;;;;;14.00;3.50;;;;;;;6.63;89.35;100768.35;104827;1268;98850;-78
2024/03/17 02:22:28;;;;;;;10.70;2.80;;;;;;;6.58;89.28;100771.91;104958;1270;97972;-78
2024/03/17 02:25:13;;;;;;;9.50;3.10;;;;;;;6.53;89.54;100776.48;105011;1268;184490;-78
2024/03/17 02:27:58;;;;;;;6.90;2.10;;;;;;;6.49;89.54;100777.27;104973;1272;99916;-78
2024/03/17 02:30:44;;;;;;;14.20;2.70;;;;;;;6.45;89.94;100778.01;105010;1273;98486;-77
2024/03/17 02:33:30;;;;;;;10.00;2.80;;;;;;;6.40;90.16;100783.66;104893;1268;98036;-78
2024/03/17 02:36:17;;;;;;;14.90;3.50;;;;;;;6.33;90.40;100784.77;105018;1273;98429;-78
2024/03/17 02:42:09;;;;;;;10.30;3.20;;;;;;;6.23;91.17;100793.05;104946;1273;100614;-77
2024/03/17 02:44:54;;;;;;;10.10;3.20;;;;;;;6.16;91.09;100790.77;104880;1273;98031;-77
2024/03/17 02:47:41;;;;;;;11.90;3.70;;;;;;;6.10;91.56;100792.81;104761;1273;98014;-78
2024/03/17 02:50:26;;;;;;;11.20;3.10;;;;;;;6.06;91.56;100796.06;104986;1273;99125;-77
2024/03/17 02:53:11;;;;;;;15.60;3.20;;;;;;;6.04;91.97;100795.91;105022;1273;102161;-78
2024/03/17 02:55:57;;;;;;;12.10;2.70;;;;;;;6.01;92.05;100799.84;104993;1272;99162;-77
2024/03/17 02:58:43;;;;;;;12.00;3.70;;;;;;;6.00;92.34;100803.89;105052;1273;98335;-76
2024/03/17 03:01:29;;;;;;;13.70;3.50;;;;;;;5.98;92.30;100801.44;105267;1273;98097;-77
2024/03/17 03:04:15;;;;;;;8.50;3.00;;;;;;;5.97;92.46;100799.07;104870;1273;98061;-77
2024/03/17 03:07:00;;;;;;;21.60;4.10;;;;;;;5.95;92.20;100798.16;104803;1273;103354;-78
2024/03/17 03:09:47;;;;;;;10.60;3.50;;;;;;;5.91;91.80;100794.47;104885;1272;99141;-77
2024/03/17 03:12:32;;;;;;;13.20;3.00;;;;;;;5.89;91.48;100792.92;105312;1274;98450;-78
2024/03/17 03:15:18;;;;;;;13.30;3.30;;;;;;;5.86;91.22;100793.91;104950;1268;97983;-77
2024/03/17 03:18:04;;;;;;;11.50;3.30;;;;;;;5.82;91.07;100796.14;104754;1272;99650;-78
2024/03/17 03:20:52;;;;;;;16.40;3.90;;;;;;;5.76;90.52;100795.48;104816;1282;101336;-77
2024/03/17 03:23:38;;;;;;;9.50;3.30;;;;;;;5.72;90.41;100797.66;104814;1272;99132;-78
2024/03/17 03:26:24;;;;;;;8.50;2.90;;;;;;;5.71;90.65;100795.56;104926;1273;98801;-78
2024/03/17 03:29:10;;;;;;;13.80;3.60;;;;;;;5.74;90.53;100795.19;104842;1274;97915;-77
2024/03/17 03:31:56;;;;;;;12.80;2.60;;;;;;;5.74;90.57;100795.10;104797;1274;97947;-77
2024/03/17 03:34:41;;;;;;;12.20;3.20;;;;;;;5.78;90.61;100788.03;104875;1273;102753;-78
2024/03/17 03:37:27;;;;;;;18.60;3.80;;;;;;;5.79;90.19;100782.39;104913;1268;99179;-77
2024/03/17 03:40:16;;;;;;;14.80;3.20;;;;;;;5.81;90.28;100777.73;105386;1268;99246;-79
2024/03/17 03:43:01;;;;;;;9.90;2.80;;;;;;;5.85;90.19;100778.79;106725;1273;97992;-79
2024/03/17 03:45:47;;;;;;;11.00;2.90;;;;;;;5.86;89.83;100783.17;104872;1274;98010;-77
2024/03/17 03:48:34;;;;;;;9.20;3.10;;;;;;;5.85;89.70;100785.02;104905;1268;101371;-78
2024/03/17 03:51:19;;;;;;;12.50;3.90;;;;;;;5.86;90.04;100783.15;105095;1269;99126;-78
2024/03/17 03:54:06;;;;;;;9.60;3.70;;;;;;;5.87;89.82;100782.73;104934;1273;98007;-77
2024/03/17 03:56:52;;;;;;;13.60;5.60;;;;;;;5.85;89.88;100781.70;104925;1272;98353;-77
2024/03/17 03:59:38;;;;;;;11.40;4.40;;;;;;;5.83;89.78;100779.88;104900;1272;98519;-76
2024/03/17 04:02:25;;;;;;;11.30;4.60;;;;;;;5.81;89.52;100779.23;104766;1270;101454;-76
2024/03/17 04:05:10;;;;;;;8.40;3.70;;;;;;;5.78;89.38;100780.69;104707;1267;100361;-77
2024/03/17 04:07:56;;;;;;;9.70;3.90;;;;;;;5.77;89.26;100778.75;104831;1271;99091;-77
2024/03/17 04:10:44;;;;;;;8.40;2.90;;;;;;;5.73;88.93;100780.03;104778;1272;99105;-77
2024/03/17 04:13:30;;;;;;;13.70;3.20;;;;;;;5.67;88.83;100787.35;104790;1271;98500;-77
2024/03/17 04:16:15;;;;;;;12.50;3.70;;;;;;;5.65;88.90;100787.52;106545;1270;101371;-78
2024/03/17 04:19:00;;;;;;;14.40;3.50;;;;;;;5.63;89.01;100787.96;104983;1273;99885;-77
2024/03/17 04:21:46;;;;;;;12.90;3.80;;;;;;;5.58;89.23;100789.52;104881;1273;99005;-79
2024/03/17 04:24:32;;;;;;;15.40;3.50;;;;;;;5.54;89.55;100788.64;105081;1271;97936;-78
2024/03/17 04:27:18;;;;;;;12.70;3.30;;;;;;;5.51;89.99;100789.47;105166;1271;98578;-77
2024/03/17 04:30:05;;;;;;;15.60;3.60;;;;;;;5.48;90.33;100791.52;105033;1281;101352;-77
2024/03/17 04:32:52;;;;;;;12.90;3.60;;;;;;;5.44;90.59;100788.54;104921;1274;99123;-78
2024/03/17 04:35:41;;;;;;;11.00;3.80;;;;;;;5.42;90.89;100787.33;105820;1267;98698;-77
2024/03/17 04:38:26;;;;;;;14.90;4.60;;;;;;;5.38;91.05;100790.55;104915;1272;97982;-77
2024/03/17 04:41:16;;;;;;;12.00;4.20;;;;;;;5.34;91.17;100790.60;105011;1280;97899;-78
2024/03/17 04:44:06;;;;;;;17.90;5.20;;;;;;;5.29;91.31;100790.35;104995;1277;101391;-77
2024/03/17 04:46:54;;;;;;;12.30;4.10;;;;;;;5.24;91.76;100792.31;105002;1272;99176;-77
2024/03/17 04:49:42;;;;;;;11.10;4.20;;;;;;;5.20;91.94;100793.92;104939;1274;99245;-78
2024/03/17 04:52:27;;;;;;;17.50;4.20;;;;;;;5.16;91.92;100798.95;106986;1271;97894;-77
2024/03/17 04:55:13;;;;;;;10.50;4.00;;;;;;;5.10;91.91;100800.22;105069;1273;98027;-78
2024/03/17 04:57:58;;;;;;;11.70;4.00;;;;;;;5.06;92.12;100802.71;105000;1271;102116;-79
2024/03/17 05:00:44;;;;;;;17.40;4.50;;;;;;;5.04;92.19;100798.64;104853;1273;100397;-78
2024/03/17 05:03:29;;;;;;;9.50;3.40;;;;;;;5.01;92.39;100799.11;105066;1267;97927;-78
2024/03/17 05:06:15;;;;;;;14.90;4.90;;;;;;;4.99;92.35;100800.92;105355;1273;97899;-79
2024/03/17 05:09:00;;;;;;;13.30;3.70;;;;;;;4.95;92.09;100804.55;105193;1274;98939;-79
2024/03/17 05:11:47;;;;;;;12.90;3.80;;;;;;;4.88;91.90;100802.36;104967;1273;101411;-76
2024/03/17 05:14:32;;;;;;;13.70;4.20;;;;;;;4.84;92.00;100801.11;104912;1267;99145;-78
2024/03/17 05:17:18;;;;;;;12.10;4.40;;;;;;;4.83;92.29;100801.97;104898;1267;99075;-77
2024/03/17 05:20:05;;;;;;;12.60;3.80;;;;;;;4.84;92.17;100802.52;104876;1274;97944;-77
2024/03/17 05:22:50;;;;;;;9.90;3.40;;;;;;;4.84;91.86;100802.58;105054;1267;98501;-79
2024/03/17 05:25:37;;;;;;;11.80;3.70;;;;;;;4.83;91.82;100804.77;104887;1273;102069;-77
2024/03/17 05:28:23;;;;;;;12.10;3.90;;;;;;;4.84;91.89;100802.36;106268;1272;99271;-77
2024/03/17 05:31:09;;;;;;;12.00;3.80;;;;;;;4.84;91.72;100799.70;104854;1272;98071;-77
2024/03/17 05:33:55;;;;;;;10.50;3.60;;;;;;;4.84;91.59;100800.45;104601;1270;99290;-78
2024/03/17 05:36:40;;;;;;;11.70;3.80;;;;;;;4.85;91.39;100797.02;104698;1270;99638;-77
2024/03/17 05:39:25;;;;;;;12.80;3.70;;;;;;;4.86;91.19;100795.09;104594;1271;102131;-77
2024/03/17 05:42:11;;;;;;;7.90;2.70;;;;;;;4.89;91.33;100795.15;104891;1272;99772;-78
2024/03/17 05:44:56;;;;;;;14.80;3.90;;;;;;;4.92;91.24;100794.14;104964;1267;97976;-78
2024/03/17 05:47:42;;;;;;;11.50;3.90;;;;;;;4.94;91.09;100795.75;104833;1273;99173;-77
2024/03/17 05:50:29;;;;;;;18.00;4.70;;;;;;;4.97;90.83;100801.33;104795;1273;99587;-78
2024/03/17 05:53:14;;;;;;;16.10;5.90;;;;;;;4.96;90.65;100800.45;104847;1274;101378;-77
2024/03/17 05:56:01;;;;;;;14.00;5.00;;;;;;;4.98;90.61;100799.55;104811;1270;99730;-77
2024/03/17 05:58:48;;;;;;;11.60;4.00;;;;;;;5.02;90.69;100802.09;104520;1271;98868;-76
2024/03/17 06:01:33;;;;;;;13.30;4.30;;;;;;;5.05;90.78;100801.96;104710;1273;98854;-77
2024/03/17 06:04:19;;;;;;;12.50;3.40;;;;;;;5.08;90.75;100798.33;104861;1270;98446;-77
2024/03/17 06:07:05;;;;;;;10.70;4.30;;;;;;;5.11;90.84;100796.77;104881;1272;102637;-77
2024/03/17 06:09:51;;;;;;;12.10;3.70;;;;;;;5.15;90.76;100804.16;104740;1270;100372;-77
2024/03/17 06:12:37;;;;;;;18.00;3.80;;;;;;;5.17;90.55;100806.44;104748;1267;98119;-78
2024/03/17 06:15:23;;;;;;;14.40;3.00;;;;;;;5.20;90.44;100806.52;104840;1270;99029;-78
2024/03/17 06:18:13;;;;;;;12.40;4.90;;;;;;;5.22;90.19;100804.88;104923;1272;97724;-78
2024/03/17 06:20:59;;;;;;;8.90;3.40;;;;;;;5.26;90.46;100803.20;104702;1270;101496;-77
2024/03/17 06:23:45;;;;;;;9.30;2.90;;;;;;;5.29;90.08;100806.49;104842;1267;99817;-76
2024/03/17 06:26:33;;;;;;;16.20;3.00;;;;;;;5.31;89.99;100809.33;106244;1272;99652;-78
2024/03/17 06:29:19;;;;;;;10.00;3.10;;;;;;;5.31;89.90;100813.17;104847;1273;97988;-78
2024/03/17 06:32:04;;;;;;;15.90;3.90;;;;;;;5.33;90.03;100814.27;104887;1268;98153;-78
2024/03/17 06:34:49;;;;;;;15.50;3.70;;;;;;;5.35;90.10;100822.89;104821;1267;101401;-78
2024/03/17 06:37:35;;;;;;;12.20;4.20;;;;;;;5.37;90.17;100823.41;104748;1272;99228;-76
2024/03/17 06:40:20;;;;;;;18.60;8.50;;;;;;;5.38;89.88;100822.83;104726;1273;98963;-77
2024/03/17 06:43:06;;;;;;;44.90;16.40;;;;;;;5.37;89.70;100822.65;104782;1270;98036;-77
2024/03/17 06:45:59;;;;;;;29.20;14.30;;;;;;;5.39;90.09;100821.02;104693;1273;98476;-77
2024/03/17 06:48:44;;;;;;;24.30;9.90;;;;;;;5.41;90.22;100825.15;104878;1271;102565;-77
2024/03/17 06:51:29;;;;;;;15.50;7.80;;;;;;;5.41;90.13;100828.45;104694;1273;99121;-77
2024/03/17 06:54:15;;;;;;;9.60;5.70;;;;;;;5.43;90.09;100827.80;104670;1271;98442;-77
2024/03/17 06:57:01;;;;;;;14.60;5.50;;;;;;;5.45;89.97;100827.60;104697;1271;98593;-76
2024/03/17 06:59:48;;;;;;;11.50;4.30;;;;;;;5.49;90.02;100828.09;104769;1270;98152;-77
2024/03/17 07:02:33;;;;;;;15.00;5.40;;;;;;;5.51;89.95;100827.70;104778;1273;101428;-77
2024/03/17 07:05:19;;;;;;;13.10;4.60;;;;;;;5.53;89.67;100823.11;104856;1270;100391;-78
2024/03/17 07:08:05;;;;;;;12.80;3.60;;;;;;;5.54;89.49;100825.14;104928;1271;97979;-77
2024/03/17 07:11:06;;;;;;;16.70;3.50;;;;;;;5.58;89.86;100826.67;104757;1273;97989;-79
2024/03/17 07:13:51;;;;;;;9.00;4.00;;;;;;;5.61;89.63;100830.98;104847;1268;97803;-77
2024/03/17 07:16:37;;;;;;;16.70;4.80;;;;;;;5.63;89.31;100832.95;104961;1268;102913;-81
2024/03/17 07:19:23;;;;;;;13.20;3.00;;;;;;;5.66;89.71;100835.44;105410;1270;99152;-82
2024/03/17 07:22:08;;;;;;;15.20;3.90;;;;;;;5.71;89.50;100833.73;105198;1273;99386;-82
2024/03/17 07:25:00;;;;;;;7.20;3.40;;;;;;;5.72;89.00;100838.42;105324;1268;96359;-82
2024/03/17 07:27:45;;;;;;;9.90;3.50;;;;;;;5.72;88.74;100839.48;105612;1268;98488;-78
2024/03/17 07:30:33;;;;;;;21.50;3.90;;;;;;;5.73;88.87;100839.16;107555;1271;102470;-84
2024/03/17 07:33:20;;;;;;;10.30;3.80;;;;;;;5.78;89.15;100841.69;105822;1270;99072;-83
2024/03/17 07:36:08;;;;;;;12.10;3.70;;;;;;;5.81;89.22;100839.59;105296;1270;99292;-83
2024/03/17 07:38:53;;;;;;;15.90;6.60;;;;;;;5.83;88.64;100835.53;105447;1271;97999;-77
2024/03/17 07:41:39;;;;;;;14.20;4.70;;;;;;;5.85;88.58;100839.45;104765;1272;98561;-78
2024/03/17 07:44:28;;;;;;;12.20;5.20;;;;;;;5.89;88.76;100841.36;105193;1272;101568;-78
2024/03/17 07:47:13;;;;;;;12.90;4.70;;;;;;;5.93;88.45;100841.34;106448;1268;99702;-78
2024/03/17 07:50:03;;;;;;;14.70;4.40;;;;;;;5.96;88.67;100838.54;105155;1272;98738;-78
2024/03/17 07:52:48;;;;;;;12.80;5.10;;;;;;;6.00;88.78;100835.66;105005;1268;97912;-78
2024/03/17 07:55:34;;;;;;;12.00;4.20;;;;;;;6.02;88.32;100835.77;105556;1273;99058;-82
2024/03/17 07:58:19;;;;;;;12.40;4.40;;;;;;;6.04;88.41;100839.67;105752;1272;102119;-84
2024/03/17 08:01:11;;;;;;;13.90;4.50;;;;;;;6.06;88.29;100840.90;105527;1268;99187;-84
2024/03/17 08:03:58;;;;;;;13.50;3.70;;;;;;;6.05;88.38;100839.86;105568;1269;98956;-85
2024/03/17 08:06:44;;;;;;;14.80;4.50;;;;;;;6.06;88.20;100840.46;105554;1268;97995;-80
2024/03/17 08:09:30;;;;;;;12.40;4.50;;;;;;;6.07;88.20;100840.77;105605;1268;98423;-86
2024/03/17 08:12:15;;;;;;;13.70;4.10;;;;;;;6.11;88.43;100842.85;105469;1274;101370;-80
2024/03/17 08:15:01;;;;;;;11.50;3.50;;;;;;;6.15;88.36;100838.40;105677;1268;99377;-79
2024/03/17 08:17:47;;;;;;;14.80;4.70;;;;;;;6.17;88.45;100838.71;105551;1273;98578;-80
2024/03/17 08:20:32;;;;;;;14.70;5.90;;;;;;;6.18;88.04;100840.55;105729;1268;97966;-81
2024/03/17 08:23:17;;;;;;;22.90;8.40;;;;;;;6.18;88.07;100840.48;105714;1268;97782;-82
2024/03/17 08:26:03;;;;;;;14.90;6.40;;;;;;;6.16;87.80;100841.13;105384;1273;102833;-80
2024/03/17 08:28:49;;;;;;;15.30;5.50;;;;;;;6.11;87.61;100838.04;105802;1268;99496;-80
2024/03/17 08:31:34;;;;;;;10.00;4.20;;;;;;;6.08;88.01;100844.95;105334;1270;99306;-83
2024/03/17 08:34:20;;;;;;;20.20;5.90;;;;;;;6.06;88.25;100848.29;105374;1268;97922;-78
2024/03/17 08:37:08;;;;;;;12.20;5.50;;;;;;;6.04;88.42;100854.02;105682;1272;98007;-83
2024/03/17 08:39:54;;;;;;;13.50;4.70;;;;;;;5.98;88.72;100868.11;105908;1268;102796;-80
2024/03/17 08:42:40;;;;;;;9.50;4.70;;;;;;;5.80;89.63;100874.48;105871;1268;100434;-80
2024/03/17 08:45:25;;;;;;;12.40;4.30;;;;;;;5.65;90.75;100874.54;105674;1272;98076;-81
2024/03/17 08:48:11;;;;;;;8.70;3.20;;;;;;;5.57;91.46;100871.60;105542;1268;98049;-83
2024/03/17 08:50:57;;;;;;;11.90;4.00;;;;;;;5.56;92.06;100868.73;105868;1272;97751;-82
2024/03/17 08:53:43;;;;;;;10.90;4.00;;;;;;;5.60;92.86;100866.36;105629;1268;101582;-82
2024/03/17 08:56:29;;;;;;;8.70;3.80;;;;;;;5.68;93.84;100866.79;105721;1268;100861;-82
2024/03/17 08:59:14;;;;;;;12.70;3.90;;;;;;;5.75;93.73;100866.27;105580;1273;97952;-78
2024/03/17 09:01:59;;;;;;;10.80;3.30;;;;;;;5.79;93.86;100866.21;104639;1268;97974;-77
2024/03/17 09:04:44;;;;;;;10.30;3.60;;;;;;;5.83;93.92;100866.17;104675;1270;99695;-77
2024/03/17 09:07:30;;;;;;;19.00;3.60;;;;;;;5.87;93.76;100860.35;104527;1273;102634;-77
2024/03/17 09:10:15;;;;;;;8.80;3.00;;;;;;;5.90;93.28;100856.33;104593;1268;99905;-76
2024/03/17 09:13:01;;;;;;;7.80;3.10;;;;;;;5.94;92.61;100853.38;104673;1270;98021;-78
2024/03/17 09:15:57;;;;;;;7.20;3.20;;;;;;;5.99;92.57;100854.56;104754;1272;98005;-77
2024/03/17 09:18:42;;;;;;;6.60;2.50;;;;;;;6.06;92.70;100855.39;104599;1269;98534;-77
2024/03/17 09:21:27;;;;;;;5.90;1.90;;;;;;;6.14;91.93;100853.15;104714;1271;101389;-77
2024/03/17 09:24:13;;;;;;;5.10;2.30;;;;;;;6.18;91.60;100850.42;104741;1268;99683;-76
2024/03/17 09:26:58;;;;;;;4.30;1.40;;;;;;;6.23;90.93;100848.69;104530;1272;98328;-77
2024/03/17 09:29:46;;;;;;;2.80;1.70;;;;;;;6.19;89.31;100846.05;104647;1268;98046;-77
2024/03/17 09:32:31;;;;;;;3.50;2.10;;;;;;;6.18;89.67;100847.48;104689;1273;99652;-78
2024/03/17 09:35:17;;;;;;;4.90;2.30;;;;;;;6.24;90.37;100849.50;104583;1274;101370;-76
2024/03/17 09:38:04;;;;;;;4.50;1.90;;;;;;;6.29;90.05;100854.68;104578;1274;99828;-76
2024/03/17 09:40:55;;;;;;;5.20;2.20;;;;;;;6.31;89.40;100853.50;104488;1273;97955;-77
2024/03/17 09:43:45;;;;;;;6.30;2.40;;;;;;;6.36;90.07;100857.92;105014;1273;97907;-87
2024/03/17 09:46:31;;;;;;;;;;;;;;;6.39;90.18;100854.73;105830;1268;97894;-83
2024/03/17 09:49:17;;;;;;;8.30;3.20;;;;;;;6.36;90.00;100854.86;105732;1267;102512;-84
2024/03/17 09:52:03;;;;;;;6.10;2.90;;;;;;;6.33;90.31;100856.84;105419;1267;100362;-83
2024/03/17 09:54:56;;;;;;;9.80;3.50;;;;;;;6.33;90.71;100859.64;105217;1267;99486;-82
2024/03/17 09:57:43;;;;;;;11.60;4.20;;;;;;;6.34;90.97;100861.10;105348;1268;98073;-84
2024/03/17 10:00:28;;;;;;;4.80;2.90;;;;;;;6.35;89.99;100863.11;105702;1268;99658;-81
2024/03/17 10:03:55;;;;;;;6.10;3.10;;;;;;;6.32;89.36;100866.77;105707;1267;102580;-83
2024/03/17 10:06:47;;;;;;;6.40;2.40;;;;;;;6.31;88.96;100871.69;105492;1271;101367;-82
2024/03/17 10:09:32;;;;;;;5.20;2.40;;;;;;;6.34;88.43;100870.29;105627;1268;98142;-81
2024/03/17 10:12:29;;;;;;;7.30;2.60;;;;;;;6.39;88.32;100870.02;105872;1270;97918;-84
2024/03/17 10:15:14;;;;;;;4.60;2.00;;;;;;;6.47;87.90;100867.47;105351;1271;98430;-84
2024/03/17 10:18:00;;;;;;;5.40;2.90;;;;;;;6.51;86.35;100863.95;105523;1273;101437;-80
2024/03/17 10:20:45;;;;;;;5.40;2.40;;;;;;;6.51;85.52;100861.15;105078;1267;100384;-79
2024/03/17 10:23:31;;;;;;;3.80;2.20;;;;;;;6.53;85.33;100857.61;104896;1267;98033;-80
2024/03/17 10:26:16;;;;;;;5.80;2.30;;;;;;;6.55;84.50;100856.15;104980;1268;98017;-79
2024/03/17 10:29:04;;;;;;;6.90;2.70;;;;;;;6.57;84.35;100851.64;104858;1267;98617;-79
2024/03/17 10:31:49;;;;;;;10.50;3.90;;;;;;;6.64;85.02;100854.29;105829;1267;102426;-80
2024/03/17 10:34:35;;;;;;;6.20;2.70;;;;;;;6.75;85.21;100853.68;106053;1267;100561;-84
2024/03/17 10:37:26;;;;;;;5.50;2.40;;;;;;;6.87;84.74;100852.77;106395;1267;97870;-86
2024/03/17 10:40:13;;;;;;;3.50;2.00;;;;;;;6.96;84.08;100857.14;105505;1267;96045;-85
2024/03/17 10:43:03;;;;;;;3.80;1.30;;;;;;;7.03;83.13;100862.31;105706;1270;98939;-81
2024/03/17 10:45:49;;;;;;;2.10;1.20;;;;;;;7.06;81.49;100860.09;105761;1267;101620;-87
2024/03/17 10:48:36;;;;;;;2.90;1.90;;;;;;;7.06;80.98;100861.05;106010;1270;99743;-81
2024/03/17 10:51:22;;;;;;;1.30;0.80;;;;;;;7.04;80.05;100867.92;105787;1268;97963;-88
2024/03/17 10:54:21;;;;;;;1.50;0.60;;;;;;;6.98;79.28;100868.35;105497;1271;98128;-81
2024/03/17 10:57:14;;;;;;;1.30;0.80;;;;;;;6.91;79.09;100871.87;105621;1268;98033;-82
2024/03/17 11:00:08;;;;;;;1.60;1.00;;;;;;;6.90;79.34;100878.37;105739;1268;101378;-81
2024/03/17 11:02:55;;;;;;;0.90;0.80;;;;;;;6.89;78.79;100879.55;105831;1272;100661;-82
2024/03/17 11:05:41;;;;;;;2.30;1.00;;;;;;;6.85;78.39;100879.47;105911;1268;98058;-81
2024/03/17 11:08:26;;;;;;;1.80;1.00;;;;;;;6.77;77.94;100877.06;105530;1268;97966;-81
2024/03/17 11:11:13;;;;;;;3.80;1.40;;;;;;;6.69;78.25;100880.55;105786;1268;97892;-80
2024/03/17 11:14:17;;;;;;;2.30;1.10;;;;;;;6.62;78.49;100877.25;105592;1273;102219;-81
2024/03/17 11:17:18;;;;;;;2.20;0.90;;;;;;;6.58;79.24;100888.45;105916;1268;99076;-80
2024/03/17 11:20:15;;;;;;;2.40;1.40;;;;;;;6.49;79.07;100896.52;105775;1268;99274;-82
2024/03/17 11:23:02;;;;;;;1.20;0.90;;;;;;;6.32;79.08;100898.77;105562;1268;97944;-81
2024/03/17 11:25:52;;;;;;;1.50;1.00;;;;;;;6.19;79.70;100893.66;105725;1270;97970;-81
2024/03/17 11:28:43;;;;;;;2.50;1.10;;;;;;;6.13;80.46;100890.30;105719;1268;102694;-82
2024/03/17 11:31:43;;;;;;;3.70;0.90;;;;;;;6.08;80.13;100891.85;106237;1268;99411;-81
2024/03/17 11:34:33;;;;;;;2.70;0.80;;;;;;;6.03;80.14;100895.25;105658;1268;98097;-82
2024/03/17 11:37:42;;;;;;;1.60;0.90;;;;;;;6.00;80.73;100897.80;105843;1268;97984;-82
2024/03/17 11:40:27;;;;;;;2.20;0.80;;;;;;;6.02;80.81;100894.98;106370;1268;98572;-81
2024/03/17 11:43:17;;;;;;;2.00;1.10;;;;;;;6.06;81.41;100891.06;105625;1268;101382;-81
2024/03/17 11:46:03;;;;;;;3.00;1.20;;;;;;;6.13;81.14;100890.89;105592;1268;99166;-79
2024/03/17 11:48:50;;;;;;;2.40;1.10;;;;;;;6.18;80.71;100890.24;105505;1270;99320;-81
2024/03/17 11:51:39;;;;;;;1.30;1.00;;;;;;;6.20;80.63;100889.64;105890;1268;98014;-81
2024/03/17 11:54:27;;;;;;;4.50;1.70;;;;;;;6.22;80.53;100889.73;105932;1272;98486;-81
2024/03/17 11:57:24;;;;;;;2.80;1.20;;;;;;;6.25;80.61;100886.27;106020;1268;101402;-80
2024/03/17 12:00:20;;;;;;;2.00;1.30;;;;;;;6.29;80.28;100883.67;105838;1270;100730;-81
2024/03/17 12:03:10;;;;;;;3.10;1.90;;;;;;;6.28;80.05;100884.93;105567;1268;98945;-81
2024/03/17 12:05:56;;;;;;;1.60;1.50;;;;;;;6.23;80.31;100885.45;106985;1268;96572;-81
2024/03/17 12:08:41;;;;;;;3.20;1.80;;;;;;;6.15;81.28;100886.07;105918;1268;99636;-80
2024/03/17 12:11:27;;;;;;;2.40;1.50;;;;;;;6.03;81.80;100889.54;105831;1268;101385;-81
2024/03/17 12:14:15;;;;;;;2.50;1.60;;;;;;;5.95;82.63;100890.15;105922;1272;99321;-82
2024/03/17 12:17:09;;;;;;;2.70;0.90;;;;;;;5.93;82.95;100886.14;105549;1268;97794;-84
2024/03/17 12:19:56;;;;;;;1.20;1.10;;;;;;;5.92;82.46;100881.25;105482;1273;97974;-76
2024/03/17 12:22:42;;;;;;;2.60;1.10;;;;;;;5.93;82.06;100878.52;104974;1268;98134;-86
2024/03/17 12:25:29;;;;;;;1.90;1.00;;;;;;;5.96;81.94;100878.80;105222;1276;102717;-83
2024/03/17 12:28:16;;;;;;;4.80;1.50;;;;;;;6.02;82.45;100875.34;105290;1268;99136;-84
2024/03/17 12:31:02;;;;;;;3.10;1.70;;;;;;;6.09;82.44;100873.58;105379;1270;99672;-81
2024/03/17 12:33:48;;;;;;;1.40;1.20;;;;;;;6.16;82.47;100874.94;105243;1276;99542;-83
2024/03/17 12:36:34;;;;;;;1.50;1.30;;;;;;;6.24;82.94;100877.14;105367;1268;99867;-82
2024/03/17 12:39:23;;;;;;;3.30;1.60;;;;;;;6.28;81.96;100873.23;105783;1268;103960;-83
2024/03/17 12:42:13;;;;;;;2.70;1.60;;;;;;;6.28;81.15;100874.36;105419;1273;99982;-82
2024/03/17 12:45:03;;;;;;;3.70;2.20;;;;;;;6.30;81.15;100876.99;105272;1268;99282;-82
2024/03/17 12:47:52;;;;;;;2.70;1.50;;;;;;;6.31;81.03;100880.06;105656;1268;99344;-85
2024/03/17 12:50:44;;;;;;;2.10;1.80;;;;;;;6.31;81.41;100879.99;105793;1268;99350;-89
2024/03/17 12:53:31;;;;;;;4.80;2.30;;;;;;;6.26;81.98;100884.80;105584;1268;103964;-89